createdAt,value
2022-11-04T00:00:50.218Z,73.28
2022-11-04T00:03:19.944Z,72.72
2022-11-04T00:05:48.193Z,62.10
2022-11-04T00:08:25.253Z,63.22
2022-11-04T00:11:13.268Z,52.05
2022-11-04T00:13:42.191Z,48.58
2022-11-04T00:16:28.575Z,44.47
2022-11-04T00:18:58.722Z,39.45
2022-11-04T00:21:44.430Z,34.25
2022-11-04T00:24:31.697Z,34.03
2022-11-04T00:27:17.349Z,24.45
2022-11-04T00:29:45.584Z,27.88
2022-11-04T00:32:31.193Z,27.15
2022-11-04T00:35:00.761Z,34.13
2022-11-04T00:37:28.916Z,31.13
2022-11-04T00:39:57.087Z,32.38
2022-11-04T00:42:25.261Z,32.83
2022-11-04T00:44:53.399Z,32.13
2022-11-04T00:47:21.577Z,35.63
2022-11-04T00:49:49.766Z,32.42
2022-11-04T00:52:19.415Z,35.67
2022-11-04T00:54:47.622Z,28.10
2022-11-04T00:57:16.555Z,33.08
2022-11-04T00:59:45.745Z,31.13
2022-11-04T01:02:14.268Z,31.90
2022-11-04T01:04:42.539Z,38.30
2022-11-04T01:07:10.712Z,40.15
2022-11-04T01:09:40.548Z,30.80
2022-11-04T01:12:08.880Z,35.88
2022-11-04T01:14:37.281Z,30.48
2022-11-04T01:17:05.588Z,34.00
2022-11-04T01:19:34.416Z,29.33
2022-11-04T01:22:02.615Z,28.75
2022-11-04T01:24:30.912Z,27.65
2022-11-04T01:27:00.529Z,38.42
2022-11-04T01:29:28.790Z,30.50
2022-11-04T01:31:56.965Z,30.35
2022-11-04T01:34:25.157Z,28.25
2022-11-04T01:36:53.313Z,37.00
2022-11-04T01:39:21.509Z,33.20
2022-11-04T01:41:49.739Z,31.27
2022-11-04T01:44:57.347Z,27.13
2022-11-04T01:47:33.405Z,34.70
2022-11-04T01:50:06.154Z,31.30
2022-11-04T01:52:38.841Z,30.02
2022-11-04T01:55:13.995Z,28.70
2022-11-04T01:57:46.680Z,28.88
2022-11-04T02:00:18.072Z,36.63
2022-11-04T02:02:54.922Z,38.90
2022-11-04T02:05:24.213Z,41.97
2022-11-04T02:07:57.924Z,37.72
2022-11-04T02:10:28.839Z,33.92
2022-11-04T02:12:57.133Z,36.90
2022-11-04T02:15:36.309Z,37.00
2022-11-04T02:18:19.737Z,36.65
2022-11-04T02:21:12.918Z,42.72
2022-11-04T02:24:03.700Z,57.85
2022-11-04T02:27:14.815Z,39.33
2022-11-04T02:30:07.714Z,45.53
2022-11-04T02:32:43.892Z,34.28
2022-11-04T02:35:19.896Z,39.40
2022-11-04T02:37:55.610Z,42.40
2022-11-04T02:40:32.649Z,43.83
2022-11-04T02:43:05.033Z,59.38
2022-11-04T02:45:42.125Z,39.67
2022-11-04T02:48:16.737Z,36.85
2022-11-04T02:50:50.986Z,39.70
2022-11-04T02:53:23.896Z,46.58
2022-11-04T02:55:56.676Z,32.08
2022-11-04T02:58:29.923Z,42.88
2022-11-04T03:01:02.391Z,39.00
2022-11-04T03:03:35.601Z,29.92
2022-11-04T03:06:05.997Z,35.33
2022-11-04T03:08:36.841Z,48.80
2022-11-04T03:11:12.397Z,47.75
2022-11-04T03:13:45.699Z,45.92
2022-11-04T03:16:18.949Z,47.90
2022-11-04T03:18:58.369Z,35.63
2022-11-04T03:21:28.415Z,25.42
2022-11-04T03:23:56.989Z,33.40
2022-11-04T03:26:29.889Z,26.75
2022-11-04T03:29:11.282Z,32.38
2022-11-04T03:31:46.277Z,43.85
2022-11-04T03:34:14.589Z,37.22
2022-11-04T03:36:42.932Z,30.30
2022-11-04T03:39:11.454Z,34.33
2022-11-04T03:41:43.989Z,34.20
2022-11-04T03:44:12.337Z,40.60
2022-11-04T03:46:42.477Z,42.15
2022-11-04T03:49:12.935Z,42.17
2022-11-04T03:51:41.124Z,42.45
2022-11-04T03:54:09.529Z,40.35
2022-11-04T03:57:00.892Z,50.80
2022-11-04T03:59:54.176Z,38.15
2022-11-04T04:02:35.354Z,50.35
2022-11-04T04:05:08.055Z,47.65
2022-11-04T04:07:41.077Z,52.78
2022-11-04T04:10:33.856Z,47.72
2022-11-04T04:13:04.679Z,40.30
2022-11-04T04:15:44.175Z,53.63
2022-11-04T04:18:16.725Z,48.60
2022-11-04T04:20:48.174Z,45.50
2022-11-04T04:23:37.148Z,53.58
2022-11-04T04:26:25.244Z,37.72
2022-11-04T04:28:56.687Z,48.95
2022-11-04T04:31:44.113Z,42.35
2022-11-04T04:34:13.715Z,42.25
2022-11-04T04:36:47.357Z,52.03
2022-11-04T04:39:36.688Z,48.25
2022-11-04T04:42:23.209Z,35.22
2022-11-04T04:45:00.817Z,44.00
2022-11-04T04:47:33.137Z,40.40
2022-11-04T04:50:03.841Z,48.28
2022-11-04T04:52:34.846Z,39.63
2022-11-04T04:55:03.044Z,38.67
2022-11-04T04:57:31.251Z,41.40
2022-11-04T04:59:59.424Z,39.00
2022-11-04T05:02:27.770Z,44.33
2022-11-04T05:04:56.432Z,45.38
2022-11-04T05:07:26.077Z,39.20
2022-11-04T05:09:54.343Z,50.35
2022-11-04T05:12:22.713Z,41.55
2022-11-04T05:14:51.046Z,37.05
2022-11-04T05:17:19.262Z,43.13
2022-11-04T05:19:47.442Z,47.25
2022-11-04T05:22:15.568Z,40.65
2022-11-04T05:24:45.114Z,45.17
2022-11-04T05:27:13.295Z,50.63
2022-11-04T05:29:41.480Z,40.13
2022-11-04T05:32:09.664Z,42.72
2022-11-04T05:34:37.851Z,48.25
2022-11-04T05:37:05.992Z,43.13
2022-11-04T05:39:34.102Z,46.47
2022-11-04T05:42:03.637Z,58.03
2022-11-04T05:44:31.872Z,44.08
2022-11-04T05:47:00.039Z,51.25
2022-11-04T05:49:28.226Z,46.20
2022-11-04T05:51:56.480Z,47.58
2022-11-04T05:54:24.937Z,47.58
2022-11-04T05:56:53.285Z,49.65
2022-11-04T05:59:22.793Z,40.25
2022-11-04T06:01:51.307Z,54.92
2022-11-04T06:04:20.478Z,51.97
2022-11-04T06:06:48.729Z,50.50
2022-11-04T06:09:16.845Z,39.60
2022-11-04T06:11:45.344Z,42.83
2022-11-04T06:14:18.626Z,47.10
2022-11-04T06:16:48.561Z,48.10
2022-11-04T06:19:16.712Z,52.83
2022-11-04T06:21:44.916Z,51.58
2022-11-04T06:24:13.120Z,50.80
2022-11-04T06:26:41.228Z,47.50
2022-11-04T06:29:09.988Z,45.20
2022-11-04T06:31:38.269Z,50.80
2022-11-04T06:34:07.917Z,54.38
2022-11-04T06:36:36.210Z,44.20
2022-11-04T06:39:05.649Z,53.33
2022-11-04T06:41:33.820Z,62.42
2022-11-04T06:44:02.118Z,51.40
2022-11-04T06:46:33.452Z,61.15
2022-11-04T06:49:01.628Z,42.45
2022-11-04T06:51:31.245Z,37.45
2022-11-04T06:53:59.561Z,36.08
2022-11-04T06:56:27.852Z,47.85
2022-11-04T06:58:56.831Z,49.58
2022-11-04T07:01:27.413Z,37.90
2022-11-04T07:03:57.458Z,40.45
2022-11-04T07:06:26.246Z,45.70
2022-11-04T07:08:57.437Z,52.40
2022-11-04T07:11:26.196Z,41.05
2022-11-04T07:13:54.472Z,48.55
2022-11-04T07:16:22.718Z,51.15
2022-11-04T07:18:51.900Z,45.50
2022-11-04T07:21:20.074Z,45.20
2022-11-04T07:23:48.275Z,37.97
2022-11-04T07:26:17.817Z,45.78
2022-11-04T07:28:46.000Z,50.65
2022-11-04T07:31:15.027Z,52.60
2022-11-04T07:33:43.201Z,45.38
2022-11-04T07:36:13.997Z,48.22
2022-11-04T07:38:42.156Z,49.60
2022-11-04T07:41:10.503Z,54.50
2022-11-04T07:43:40.073Z,44.40
2022-11-04T07:46:11.946Z,48.17
2022-11-04T07:48:40.652Z,52.72
2022-11-04T07:51:10.722Z,46.22
2022-11-04T07:53:39.087Z,52.50
2022-11-04T07:56:09.105Z,42.42
2022-11-04T07:58:37.254Z,61.00
2022-11-04T08:01:09.097Z,54.40
2022-11-04T08:03:38.041Z,51.38
2022-11-04T08:06:07.916Z,39.67
2022-11-04T08:08:36.157Z,36.83
2022-11-04T08:11:06.590Z,42.40
2022-11-04T08:13:36.441Z,52.35
2022-11-04T08:16:07.467Z,36.83
2022-11-04T08:18:35.896Z,54.38
2022-11-04T08:21:04.926Z,60.15
2022-11-04T08:23:34.491Z,45.88
2022-11-04T08:26:03.241Z,56.35
2022-11-04T08:28:31.413Z,44.95
2022-11-04T08:31:02.669Z,47.88
2022-11-04T08:33:33.748Z,50.97
2022-11-04T08:36:07.115Z,39.10
2022-11-04T08:38:35.499Z,54.67
2022-11-04T08:41:05.727Z,46.15
2022-11-04T08:43:35.035Z,48.15
2022-11-04T08:46:05.157Z,50.80
2022-11-04T08:48:35.711Z,45.75
2022-11-04T08:51:05.851Z,65.22
2022-11-04T08:53:34.294Z,47.25
2022-11-04T08:56:10.898Z,54.42
2022-11-04T08:58:39.216Z,54.28
2022-11-04T09:01:08.200Z,50.53
2022-11-04T09:03:38.655Z,56.58
2022-11-04T09:06:07.816Z,33.33
2022-11-04T09:08:37.975Z,63.92
2022-11-04T09:11:08.482Z,57.92
2022-11-04T09:13:39.598Z,52.28
2022-11-04T09:16:10.253Z,50.15
2022-11-04T09:18:39.912Z,38.75
2022-11-04T09:21:09.945Z,35.22
2022-11-04T09:23:38.377Z,29.75
2022-11-04T09:26:09.036Z,24.27
2022-11-04T09:28:37.354Z,24.30
2022-11-04T09:31:09.934Z,24.20
2022-11-04T09:33:39.681Z,20.67
2022-11-04T09:36:09.304Z,19.98
2022-11-04T09:38:37.963Z,16.05
2022-11-04T09:41:24.953Z,18.55
2022-11-04T09:43:58.569Z,14.43
2022-11-04T09:46:28.013Z,13.60
2022-11-04T09:48:59.257Z,11.25
2022-11-04T09:51:56.273Z,11.55
2022-11-04T09:54:22.192Z,20.35
2022-11-04T09:56:53.124Z,19.15
2022-11-04T09:59:28.413Z,17.42
2022-11-04T10:02:05.356Z,28.80
2022-11-04T10:04:46.672Z,26.00
2022-11-04T10:07:31.829Z,44.30
2022-11-04T10:10:03.344Z,23.23
2022-11-04T10:12:42.790Z,18.30
2022-11-04T10:15:29.360Z,12.38
2022-11-04T10:18:02.594Z,11.55
2022-11-04T10:20:43.768Z,22.48
2022-11-04T10:23:21.509Z,23.02
2022-11-04T10:25:50.986Z,18.88
2022-11-04T10:28:20.898Z,22.17
2022-11-04T10:30:50.335Z,15.02
2022-11-04T10:33:23.185Z,27.10
2022-11-04T10:35:57.206Z,29.33
2022-11-04T10:38:30.090Z,21.33
2022-11-04T10:41:03.004Z,29.50
2022-11-04T10:43:35.028Z,37.75
2022-11-04T10:46:09.112Z,29.05
2022-11-04T10:48:39.180Z,40.47
2022-11-04T10:51:09.162Z,23.95
2022-11-04T10:53:37.807Z,31.65
2022-11-04T10:56:09.637Z,27.13
2022-11-04T10:58:39.797Z,39.85
2022-11-04T11:01:23.163Z,28.90
2022-11-04T11:03:51.605Z,47.45
2022-11-04T11:06:26.398Z,27.20
2022-11-04T11:08:56.092Z,20.83
2022-11-04T11:11:37.589Z,40.00
2022-11-04T11:14:06.036Z,19.30
2022-11-04T11:16:34.474Z,27.55
2022-11-04T11:19:17.634Z,24.75
2022-11-04T11:21:49.184Z,20.98
2022-11-04T11:24:20.688Z,31.23
2022-11-04T11:26:49.916Z,25.08
2022-11-04T11:29:22.020Z,26.38
2022-11-04T11:31:51.888Z,29.48
2022-11-04T11:34:22.745Z,22.73
2022-11-04T11:36:52.619Z,24.65
2022-11-04T11:39:23.131Z,36.63
2022-11-04T11:41:54.176Z,27.83
2022-11-04T11:44:27.226Z,18.00
2022-11-04T11:46:56.698Z,29.17
2022-11-04T11:49:27.188Z,24.38
2022-11-04T11:51:57.486Z,45.83
2022-11-04T11:54:33.401Z,23.65
2022-11-04T11:57:15.231Z,23.10
2022-11-04T12:02:43.063Z,18.45
2022-11-04T12:10:58.011Z,39.03
2022-11-04T12:13:29.640Z,16.17
2022-11-04T12:16:09.520Z,19.50
2022-11-04T12:18:49.165Z,18.13
2022-11-04T12:21:21.382Z,16.42
2022-11-04T12:23:56.307Z,27.83
2022-11-04T12:26:31.665Z,18.90
2022-11-04T12:29:15.918Z,20.63
2022-11-04T12:31:49.425Z,17.95
2022-11-04T12:34:22.774Z,32.05
2022-11-04T12:36:58.412Z,20.15
2022-11-04T12:39:33.884Z,32.95
2022-11-04T12:42:20.630Z,30.50
2022-11-04T12:44:55.306Z,15.98
2022-11-04T12:47:29.421Z,17.10
2022-11-04T12:50:05.412Z,13.68
2022-11-04T12:52:44.442Z,11.63
2022-11-04T12:55:30.693Z,10.93
2022-11-04T12:58:04.659Z,15.93
2022-11-04T13:00:36.683Z,14.95
2022-11-04T13:03:11.223Z,21.17
2022-11-04T13:05:43.593Z,23.27
2022-11-04T13:08:15.463Z,23.67
2022-11-04T13:10:48.345Z,39.08
2022-11-04T13:13:18.485Z,21.40
2022-11-04T13:15:49.025Z,22.73
2022-11-04T13:18:19.444Z,14.73
2022-11-04T13:20:51.127Z,27.65
2022-11-04T13:23:21.943Z,20.27
2022-11-04T13:25:53.437Z,19.90
2022-11-04T13:28:23.543Z,26.60
2022-11-04T13:30:55.423Z,14.48
2022-11-04T13:33:28.441Z,9.70
2022-11-04T13:36:02.450Z,9.40
2022-11-04T13:38:33.951Z,6.38
2022-11-04T13:41:13.497Z,9.77
2022-11-04T13:43:49.452Z,6.65
2022-11-04T13:46:20.373Z,7.35
2022-11-04T13:48:54.904Z,7.13
2022-11-04T13:51:23.474Z,6.65
2022-11-04T13:53:53.218Z,7.55
2022-11-04T13:56:33.709Z,4.90
2022-11-04T13:59:04.503Z,6.88
2022-11-04T14:01:33.574Z,6.95
2022-11-04T14:04:20.957Z,4.60
2022-11-04T14:06:51.978Z,4.25
2022-11-04T14:09:38.030Z,5.32
2022-11-04T14:12:25.100Z,7.50
2022-11-04T14:14:55.816Z,7.88
2022-11-04T14:17:42.796Z,6.13
2022-11-04T14:20:11.964Z,4.45
2022-11-04T14:22:49.341Z,4.45
2022-11-04T14:25:28.454Z,7.63
2022-11-04T14:27:57.796Z,5.90
2022-11-04T14:30:35.871Z,6.00
2022-11-04T14:33:06.392Z,6.63
2022-11-04T14:35:35.118Z,4.38
2022-11-04T14:38:07.499Z,3.45
2022-11-04T14:40:49.835Z,3.40
2022-11-04T14:43:28.651Z,2.63
2022-11-04T14:45:58.964Z,5.53
2022-11-04T14:48:27.684Z,5.22
2022-11-04T14:50:56.736Z,4.25
2022-11-04T14:53:28.512Z,3.33
2022-11-04T14:56:07.338Z,4.65
2022-11-04T14:58:35.787Z,4.68
2022-11-04T15:01:07.707Z,4.22
2022-11-04T15:06:40.266Z,2.70
2022-11-04T15:09:20.487Z,4.15
2022-11-04T15:12:06.563Z,3.42
2022-11-04T15:14:38.088Z,3.50
2022-11-04T15:17:07.944Z,8.15
2022-11-04T15:19:37.334Z,9.68
2022-11-04T15:22:06.678Z,12.23
2022-11-04T15:24:36.176Z,9.65
2022-11-04T15:27:06.311Z,3.85
2022-11-04T15:29:35.048Z,4.38
2022-11-04T15:32:05.357Z,3.55
2022-11-04T15:34:36.073Z,3.75
2022-11-04T15:37:05.939Z,5.03
2022-11-04T15:39:35.640Z,4.95
2022-11-04T15:42:22.736Z,5.22
2022-11-04T15:44:52.747Z,4.68
2022-11-04T15:47:23.761Z,5.25
2022-11-04T15:49:54.503Z,5.57
2022-11-04T15:52:24.429Z,7.60
2022-11-04T15:54:54.408Z,4.25
2022-11-04T15:57:24.397Z,5.25
2022-11-04T15:59:54.225Z,2.88
2022-11-04T16:02:27.845Z,5.38
2022-11-04T16:05:09.387Z,3.05
2022-11-04T16:07:40.013Z,2.47
2022-11-04T16:10:26.560Z,5.28
2022-11-04T16:12:57.661Z,4.00
2022-11-04T16:15:34.528Z,3.20
2022-11-04T16:18:03.919Z,4.60
2022-11-04T16:20:35.568Z,3.75
2022-11-04T16:23:04.709Z,3.10
2022-11-04T16:25:35.443Z,4.03
2022-11-04T16:28:04.628Z,2.08
2022-11-04T16:30:33.105Z,3.80
2022-11-04T16:33:11.564Z,2.72
2022-11-04T16:35:43.145Z,6.05
2022-11-04T16:38:11.590Z,3.97
2022-11-04T16:40:40.105Z,3.35
2022-11-04T16:43:08.796Z,6.22
2022-11-04T16:45:39.078Z,6.57
2022-11-04T16:48:08.096Z,4.70
2022-11-04T16:50:36.410Z,6.82
2022-11-04T16:53:05.926Z,4.00
2022-11-04T16:55:34.319Z,4.00
2022-11-04T16:58:04.686Z,3.50
2022-11-04T17:00:34.003Z,3.45
2022-11-04T17:03:05.125Z,3.88
2022-11-04T17:05:33.311Z,5.50
2022-11-04T17:08:05.256Z,3.50
2022-11-04T17:10:37.085Z,2.85
2022-11-04T17:13:05.246Z,3.20
2022-11-04T17:15:33.475Z,2.63
2022-11-04T17:18:01.701Z,3.58
2022-11-04T17:20:31.837Z,5.47
2022-11-04T17:23:00.025Z,3.13
2022-11-04T17:25:30.227Z,7.43
2022-11-04T17:27:59.770Z,2.53
2022-11-04T17:30:27.974Z,5.18
2022-11-04T17:32:56.178Z,4.30
2022-11-04T17:35:24.734Z,4.57
2022-11-04T17:37:53.831Z,2.75
2022-11-04T17:40:24.898Z,3.80
2022-11-04T17:43:12.560Z,5.45
2022-11-04T17:45:43.669Z,3.25
2022-11-04T17:48:14.126Z,3.00
2022-11-04T17:50:42.637Z,3.40
2022-11-04T17:53:11.461Z,3.92
2022-11-04T17:55:41.510Z,5.13
2022-11-04T17:58:10.085Z,5.32
2022-11-04T18:00:38.385Z,4.88
2022-11-04T18:03:09.034Z,5.90
2022-11-04T18:05:38.550Z,6.67
2022-11-04T18:08:06.787Z,4.17
2022-11-04T18:10:35.022Z,5.53
2022-11-04T18:13:02.174Z,4.10
2022-11-04T18:15:31.099Z,3.07
2022-11-04T18:17:59.760Z,2.50
2022-11-04T18:20:29.387Z,3.90
2022-11-04T18:22:57.566Z,4.07
2022-11-04T18:25:25.819Z,3.00
2022-11-04T18:27:53.980Z,4.70
2022-11-04T18:30:22.544Z,5.50
2022-11-04T18:32:50.846Z,4.67
2022-11-04T18:35:19.253Z,4.57
2022-11-04T18:37:48.870Z,3.90
2022-11-04T18:40:17.852Z,5.73
2022-11-04T18:42:46.026Z,4.00
2022-11-04T18:45:14.291Z,5.07
2022-11-04T18:47:42.446Z,3.57
2022-11-04T18:50:11.556Z,3.47
2022-11-04T18:52:40.476Z,4.50
2022-11-04T18:55:11.013Z,4.00
2022-11-04T18:57:39.164Z,4.23
2022-11-04T19:00:12.891Z,5.13
2022-11-04T19:02:44.136Z,9.10
2022-11-04T19:05:12.477Z,6.93
2022-11-04T19:07:42.004Z,5.87
2022-11-04T19:10:12.783Z,7.90
2022-11-04T19:12:58.916Z,7.17
2022-11-04T19:15:27.302Z,7.30
2022-11-04T19:17:55.475Z,7.50
2022-11-04T19:20:24.013Z,8.57
2022-11-04T19:22:52.335Z,9.00
2022-11-04T19:25:22.353Z,5.67
2022-11-04T19:28:11.563Z,5.67
2022-11-04T19:30:38.760Z,7.57
2022-11-04T19:33:06.973Z,4.93
2022-11-04T19:35:35.098Z,5.87
2022-11-04T19:38:03.405Z,6.90
2022-11-04T19:40:34.707Z,6.50
2022-11-04T19:43:10.973Z,7.50
2022-11-04T19:45:40.729Z,5.53
2022-11-04T19:48:09.826Z,8.43
2022-11-04T19:50:43.083Z,7.87
2022-11-04T19:53:11.837Z,5.33
2022-11-04T19:55:41.533Z,6.83
2022-11-04T19:58:10.086Z,7.63
2022-11-04T20:00:41.041Z,5.87
2022-11-04T20:03:09.301Z,9.50
2022-11-04T20:05:41.008Z,7.07
2022-11-04T20:08:10.284Z,8.23
2022-11-04T20:10:41.600Z,7.20
2022-11-04T20:13:33.560Z,7.43
2022-11-04T20:16:03.124Z,8.87
2022-11-04T20:18:31.362Z,7.60
2022-11-04T20:20:59.508Z,6.37
2022-11-04T20:23:27.738Z,8.33
2022-11-04T20:25:57.389Z,8.63
2022-11-04T20:28:26.316Z,7.10
2022-11-04T20:30:54.542Z,8.90
2022-11-04T20:33:22.829Z,7.77
2022-11-04T20:35:51.033Z,8.50
2022-11-04T20:38:19.232Z,10.70
2022-11-04T20:40:48.391Z,7.73
2022-11-04T20:43:17.914Z,10.03
2022-11-04T20:45:52.075Z,8.33
2022-11-04T20:48:20.602Z,7.90
2022-11-04T20:50:48.882Z,7.77
2022-11-04T20:53:17.128Z,8.37
2022-11-04T20:55:45.317Z,8.13
2022-11-04T20:58:13.626Z,6.40
2022-11-04T21:00:43.200Z,7.40
2022-11-04T21:03:11.424Z,7.90
2022-11-04T21:05:39.973Z,6.63
2022-11-04T21:08:08.481Z,7.10
2022-11-04T21:10:37.470Z,8.20
2022-11-04T21:13:05.639Z,6.43
2022-11-04T21:15:44.407Z,5.13
2022-11-04T21:18:14.398Z,5.40
2022-11-04T21:20:43.691Z,6.27
2022-11-04T21:23:12.942Z,5.87
2022-11-04T21:25:43.369Z,4.93
2022-11-04T21:28:12.311Z,4.83
2022-11-04T21:30:44.702Z,5.47
2022-11-04T21:33:14.405Z,4.77
2022-11-04T21:35:44.038Z,4.43
2022-11-04T21:38:15.491Z,5.40
2022-11-04T21:40:44.585Z,4.87
2022-11-04T21:43:14.039Z,5.37
2022-11-04T21:45:42.222Z,3.40
2022-11-04T21:48:10.736Z,4.50
2022-11-04T21:50:40.673Z,3.87
2022-11-04T21:53:08.921Z,3.07
2022-11-04T21:55:37.066Z,3.30
2022-11-04T21:58:05.226Z,3.97
2022-11-04T22:00:33.443Z,3.50
2022-11-04T22:03:01.605Z,3.07
2022-11-04T22:05:29.730Z,2.87
2022-11-04T22:08:16.688Z,2.63
2022-11-04T22:10:45.335Z,3.33
2022-11-04T22:13:13.571Z,2.37
2022-11-04T22:16:00.614Z,3.63
2022-11-04T22:18:30.441Z,2.63
2022-11-04T22:21:02.267Z,2.47
2022-11-04T22:23:32.087Z,2.80
2022-11-04T22:26:01.361Z,2.40
2022-11-04T22:28:30.174Z,3.23
2022-11-04T22:30:58.541Z,2.70
2022-11-04T22:33:31.511Z,2.63
2022-11-04T22:36:00.178Z,2.27
2022-11-04T22:38:28.468Z,1.90
2022-11-04T22:40:59.499Z,2.27
2022-11-04T22:43:28.090Z,2.13
2022-11-04T22:45:57.698Z,2.07
2022-11-04T22:48:25.968Z,2.03
2022-11-04T22:50:58.784Z,1.80
2022-11-04T22:53:27.402Z,4.47
2022-11-04T22:56:00.130Z,1.60
2022-11-04T22:58:28.825Z,1.50
2022-11-04T23:00:59.147Z,3.20
2022-11-04T23:03:27.912Z,1.60
2022-11-04T23:05:57.008Z,1.63
2022-11-04T23:08:25.850Z,1.37
2022-11-04T23:11:17.724Z,1.70
2022-11-04T23:14:08.740Z,2.13
2022-11-04T23:16:54.664Z,1.40
2022-11-04T23:19:28.281Z,1.50
2022-11-04T23:22:16.213Z,1.33
2022-11-04T23:25:02.142Z,1.60
2022-11-04T23:27:49.208Z,1.63
2022-11-04T23:30:25.612Z,1.50
2022-11-04T23:32:56.214Z,1.50
2022-11-04T23:35:43.556Z,1.73
2022-11-04T23:38:11.841Z,6.00
2022-11-04T23:40:40.206Z,1.40
2022-11-04T23:43:09.205Z,1.50
2022-11-04T23:46:09.389Z,1.60
2022-11-04T23:48:55.232Z,1.60
2022-11-04T23:51:40.640Z,3.30
2022-11-04T23:54:26.613Z,1.40
2022-11-04T23:57:12.183Z,1.53
2022-11-04T23:59:59.130Z,1.57
